createdAt,value
2023-05-08T05:03:16.238Z,25.00
2023-05-08T05:04:17.067Z,25.00
2023-05-08T05:05:16.074Z,25.00
2023-05-08T05:06:16.145Z,25.00
2023-05-08T05:07:17.148Z,25.00
2023-05-08T05:08:16.167Z,25.00
2023-05-08T05:09:16.220Z,0.00
2023-05-08T05:10:16.262Z,0.00
2023-05-08T05:11:17.252Z,0.00
2023-05-08T05:12:16.277Z,0.00
2023-05-08T05:13:17.312Z,0.00
2023-05-08T05:14:16.299Z,0.00
2023-05-08T05:15:17.314Z,0.00
2023-05-08T05:16:17.339Z,0.00
2023-05-08T05:17:16.287Z,0.00
2023-05-08T05:18:16.274Z,0.00
2023-05-08T05:19:17.301Z,0.00
2023-05-08T05:20:17.288Z,0.00
2023-05-08T05:21:16.261Z,0.00
2023-05-08T05:22:16.264Z,0.00
2023-05-08T05:23:17.304Z,0.00
2023-05-08T05:24:17.274Z,0.00
2023-05-08T05:25:16.306Z,0.00
2023-05-08T05:26:17.288Z,0.00
2023-05-08T05:27:19.305Z,0.00
2023-05-08T05:28:16.269Z,0.00
2023-05-08T05:29:17.272Z,0.00
2023-05-08T05:30:17.284Z,0.00
2023-05-08T05:31:17.258Z,0.00
2023-05-08T05:32:16.252Z,0.00
2023-05-08T05:33:17.234Z,0.00
2023-05-08T05:34:17.221Z,0.00
2023-05-08T05:35:16.310Z,0.00
2023-05-08T05:36:17.208Z,0.00
2023-05-08T05:37:17.201Z,0.00
2023-05-08T05:38:16.195Z,0.00
2023-05-08T05:39:17.203Z,0.00
2023-05-08T05:40:16.192Z,0.00
2023-05-08T05:41:17.170Z,0.00
2023-05-08T05:42:16.168Z,0.00
2023-05-08T05:43:16.168Z,0.00
2023-05-08T05:44:16.154Z,0.00
2023-05-08T05:45:17.162Z,0.00
2023-05-08T05:46:17.159Z,0.00
2023-05-08T05:47:16.200Z,0.00
2023-05-08T05:48:16.128Z,0.00
2023-05-08T05:49:16.124Z,20.06
2023-05-08T05:50:17.156Z,30.33
2023-05-08T05:51:16.217Z,28.95
2023-05-08T05:52:16.090Z,25.50
2023-05-08T05:53:16.097Z,26.89
2023-05-08T05:54:16.133Z,26.53
2023-05-08T05:55:17.135Z,27.57
2023-05-08T05:56:16.083Z,25.00
2023-05-08T05:57:16.082Z,25.00
2023-05-08T05:58:17.143Z,25.88
2023-05-08T05:59:17.127Z,29.35
2023-05-08T06:00:16.164Z,27.93
2023-05-08T06:01:17.047Z,27.26
2023-05-08T06:02:17.198Z,27.01
2023-05-08T06:03:17.106Z,28.30
2023-05-08T06:04:17.089Z,27.05
2023-05-08T06:05:17.064Z,25.85
2023-05-08T06:06:16.994Z,25.96
2023-05-08T06:07:17.072Z,31.09
2023-05-08T06:08:17.045Z,29.34
2023-05-08T06:09:17.084Z,29.71
2023-05-08T06:10:17.164Z,28.85
2023-05-08T06:11:16.184Z,27.16
2023-05-08T06:12:16.162Z,25.93
2023-05-08T06:13:16.293Z,27.05
2023-05-08T06:14:17.236Z,27.49
2023-05-08T06:15:17.335Z,25.20
2023-05-08T06:16:17.341Z,26.45
2023-05-08T06:17:16.404Z,31.09
2023-05-08T06:18:16.364Z,26.06
2023-05-08T06:19:17.358Z,33.17
2023-05-08T06:20:16.424Z,26.47
2023-05-08T06:21:17.522Z,28.95
2023-05-08T06:22:16.453Z,26.25
2023-05-08T06:23:17.559Z,27.23
2023-05-08T06:24:17.551Z,25.23
2023-05-08T06:25:17.593Z,28.02
2023-05-08T06:26:17.648Z,30.34
2023-05-08T06:27:17.672Z,31.74
2023-05-08T06:28:16.697Z,30.79
2023-05-08T06:29:17.721Z,27.81
2023-05-08T06:30:16.753Z,29.09
2023-05-08T06:31:16.768Z,25.18
2023-05-08T06:32:17.809Z,27.49
2023-05-08T06:33:16.819Z,25.00
2023-05-08T06:34:16.861Z,25.63
2023-05-08T06:35:17.894Z,29.28
2023-05-08T06:36:17.968Z,26.02
2023-05-08T06:38:36.516Z,25.00
2023-05-08T06:39:36.476Z,25.00
2023-05-08T06:40:36.521Z,25.00
2023-05-08T06:41:36.465Z,25.00
2023-05-08T06:42:36.434Z,25.00
2023-05-08T06:43:37.404Z,25.00
2023-05-08T06:44:37.424Z,29.14
2023-05-08T06:45:36.494Z,27.24
2023-05-08T06:46:36.440Z,26.99
2023-05-08T06:47:37.472Z,26.27
2023-05-08T06:48:36.418Z,28.27
2023-05-08T06:49:36.461Z,29.16
2023-05-08T06:50:36.462Z,25.00
2023-05-08T06:51:36.429Z,28.82
2023-05-08T06:52:37.401Z,25.99
2023-05-08T06:53:36.393Z,26.92
2023-05-08T06:54:37.452Z,25.00
2023-05-08T06:55:37.630Z,27.07
2023-05-08T06:56:36.352Z,27.02
2023-05-08T06:57:37.332Z,25.00
2023-05-08T06:58:36.354Z,30.46
2023-05-08T06:59:36.327Z,26.60
2023-05-08T07:00:36.342Z,29.95
2023-05-08T07:01:36.329Z,30.19
2023-05-08T07:02:36.390Z,26.98
2023-05-08T07:03:37.292Z,27.89
2023-05-08T07:04:36.308Z,26.15
2023-05-08T07:05:36.345Z,26.54
2023-05-08T07:06:37.288Z,29.23
2023-05-08T07:07:36.296Z,25.71
2023-05-08T07:08:37.307Z,26.83
2023-05-08T07:09:36.229Z,32.46
2023-05-08T07:10:37.326Z,29.21
2023-05-08T07:11:37.224Z,28.88
2023-05-08T07:12:36.303Z,29.96
2023-05-08T07:13:36.338Z,28.60
2023-05-08T07:14:36.365Z,31.77
2023-05-08T07:15:36.411Z,26.04
2023-05-08T07:16:37.485Z,27.86
2023-05-08T07:17:36.606Z,29.93
2023-05-08T07:18:37.606Z,28.02
2023-05-08T07:19:36.649Z,28.20
2023-05-08T07:20:37.705Z,26.86
2023-05-08T07:21:36.727Z,26.74
2023-05-08T07:22:36.743Z,27.66
2023-05-08T07:23:37.757Z,27.29
2023-05-08T07:24:36.822Z,28.79
2023-05-08T07:25:37.871Z,27.87
2023-05-08T07:26:36.985Z,27.79
2023-05-08T07:27:36.885Z,32.26
2023-05-08T07:28:37.957Z,30.45
2023-05-08T07:29:37.019Z,30.99
2023-05-08T07:30:36.990Z,29.01
2023-05-08T07:31:38.179Z,31.07
2023-05-08T07:32:38.133Z,29.28
2023-05-08T07:33:38.150Z,31.88
2023-05-08T07:34:37.225Z,31.16
2023-05-08T07:35:37.217Z,30.09
2023-05-08T07:36:37.262Z,28.54
2023-05-08T07:37:38.290Z,29.48
2023-05-08T07:38:37.384Z,30.98
2023-05-08T07:39:37.371Z,30.44
2023-05-08T07:40:37.404Z,27.63
2023-05-08T07:41:38.483Z,29.86
2023-05-08T07:42:37.509Z,31.53
2023-05-08T07:43:37.511Z,26.61
2023-05-08T07:44:47.195Z,25.85
2023-05-08T07:45:38.610Z,26.14
2023-05-08T07:46:38.557Z,26.93
2023-05-08T07:47:37.569Z,27.81
2023-05-08T07:48:37.528Z,28.39
2023-05-08T07:49:37.536Z,32.70
2023-05-08T07:50:38.694Z,33.26
2023-05-08T07:51:37.572Z,34.03
2023-05-08T07:52:37.492Z,35.06
2023-05-08T07:53:38.507Z,27.73
2023-05-08T07:54:37.487Z,31.02
2023-05-08T07:55:37.520Z,34.43
2023-05-08T07:56:37.477Z,30.74
2023-05-08T07:57:37.481Z,30.69
2023-05-08T07:58:38.585Z,31.98
2023-05-08T07:59:37.547Z,26.84
2023-05-08T08:00:38.588Z,29.26
2023-05-08T08:01:38.705Z,30.49
2023-05-08T08:02:37.739Z,31.68
2023-05-08T08:03:38.816Z,30.66
2023-05-08T08:04:37.966Z,29.57
2023-05-08T08:05:38.805Z,29.97
2023-05-08T08:06:37.844Z,30.48
2023-05-08T08:07:38.952Z,29.34
2023-05-08T08:08:38.933Z,32.91
2023-05-08T08:09:39.043Z,32.37
2023-05-08T08:10:38.070Z,31.69
2023-05-08T08:11:38.149Z,34.07
2023-05-08T08:12:38.143Z,29.69
2023-05-08T08:13:39.203Z,31.10
2023-05-08T08:14:39.333Z,31.68
2023-05-08T08:15:38.340Z,31.12
2023-05-08T08:16:39.366Z,31.54
2023-05-08T08:17:38.363Z,31.97
2023-05-08T08:18:39.469Z,31.06
2023-05-08T08:19:38.471Z,31.06
2023-05-08T08:20:38.579Z,30.39
2023-05-08T08:21:39.663Z,30.38
2023-05-08T08:22:39.712Z,31.65
2023-05-08T08:23:38.723Z,32.05
2023-05-08T08:24:39.840Z,33.65
2023-05-08T08:25:39.886Z,29.86
2023-05-08T08:26:38.882Z,30.90
2023-05-08T08:27:38.986Z,32.86
2023-05-08T08:28:39.995Z,30.83
2023-05-08T08:29:39.034Z,32.79
2023-05-08T08:30:40.150Z,31.92
2023-05-08T08:31:39.262Z,30.98
2023-05-08T08:32:40.334Z,32.07
2023-05-08T08:33:39.259Z,32.98
2023-05-08T08:34:39.388Z,33.53
2023-05-08T08:35:39.477Z,31.75
2023-05-08T08:36:39.485Z,30.61
2023-05-08T08:37:39.554Z,32.98
2023-05-08T08:38:39.698Z,32.20
2023-05-08T08:39:39.677Z,30.22
2023-05-08T08:41:32.000Z,25.00
